Time;durP1;ratioP1;P1;durP2;ratioP2;P2;SDS_P1;SDS_P2;PMS_P1;PMS_P2;Temp;Humidity;BMP_temperature;BMP_pressure;BME280_temperature;BME280_humidity;BME280_pressure;Samples;Min_cycle;Max_cycle;Signal;HPM_P1;HPM_P2
2021/04/20 00:01:30;;;;;;;39.50;25.30;;;9.00;99.90;;;;;;4960054;28;20047;-77
2021/04/20 00:03:56;;;;;;;40.80;24.33;;;9.00;99.90;;;;;;4957854;28;20058;-74
2021/04/20 00:06:21;;;;;;;33.80;22.77;;;9.10;99.90;;;;;;4961737;28;20084;-73
2021/04/20 00:08:47;;;;;;;41.33;22.95;;;9.10;99.90;;;;;;4956497;28;20058;-74
2021/04/20 00:11:13;;;;;;;36.65;23.42;;;9.10;99.90;;;;;;4975572;28;20027;-75
2021/04/20 00:13:39;;;;;;;38.78;23.58;;;9.10;99.90;;;;;;4964991;28;20027;-74
2021/04/20 00:16:04;;;;;;;36.47;23.73;;;9.10;99.90;;;;;;4961398;28;20038;-75
2021/04/20 00:18:30;;;;;;;36.92;24.25;;;9.00;99.90;;;;;;4961298;28;20031;-72
2021/04/20 00:20:56;;;;;;;39.75;24.73;;;9.10;99.90;;;;;;4967619;28;20035;-75
2021/04/20 00:23:22;;;;;;;40.67;24.80;;;9.10;99.90;;;;;;4960566;28;20035;-73
2021/04/20 00:25:47;;;;;;;41.03;25.42;;;9.10;99.90;;;;;;4964405;28;20027;-75
2021/04/20 00:28:22;;;;;;;42.60;25.60;;;9.00;99.90;;;;;;4970599;28;20034;-73
2021/04/20 00:30:48;;;;;;;38.30;25.00;;;9.00;99.90;;;;;;4957673;28;20019;-73
2021/04/20 00:33:13;;;;;;;40.22;24.88;;;8.90;99.90;;;;;;4961435;28;20050;-75
2021/04/20 00:35:39;;;;;;;35.85;23.73;;;8.90;99.90;;;;;;4970571;28;20031;-73
2021/04/20 00:38:05;;;;;;;41.58;25.35;;;8.80;99.90;;;;;;4959859;28;20034;-74
2021/04/20 00:40:30;;;;;;;45.80;26.40;;;8.70;99.90;;;;;;4957492;28;20044;-76
2021/04/20 00:42:58;;;;;;;46.70;27.75;;;8.70;99.90;;;;;;4942701;28;20031;-74
2021/04/20 00:45:26;;;;;;;56.60;28.52;;;8.60;99.90;;;;;;4965258;28;20031;-74
2021/04/20 00:47:52;;;;;;;47.00;27.27;;;8.60;99.90;;;;;;4954483;28;20092;-75
2021/04/20 00:50:23;;;;;;;49.30;28.45;;;8.50;99.90;;;;;;4966686;28;20035;-74
2021/04/20 00:52:48;;;;;;;53.25;28.30;;;8.50;99.90;;;;;;4967774;28;20069;-75
2021/04/20 00:55:16;;;;;;;49.83;27.27;;;8.60;99.90;;;;;;4943943;28;20031;-74
2021/04/20 00:57:41;;;;;;;60.22;29.38;;;8.50;99.90;;;;;;4955109;28;20450;-74
2021/04/20 01:00:12;;;;;;;50.28;27.73;;;8.50;99.90;;;;;;4962873;28;20042;-74
2021/04/20 01:02:40;;;;;;;51.17;28.58;;;8.40;99.90;;;;;;4962313;28;20038;-74
2021/04/20 01:05:18;;;;;;;49.15;28.92;;;8.30;99.90;;;;;;4951127;28;20027;-74
2021/04/20 01:07:45;;;;;;;41.55;26.55;;;8.30;99.90;;;;;;4958550;28;20023;-76
2021/04/20 01:10:12;;;;;;;51.03;28.27;;;8.40;99.90;;;;;;4956307;28;20023;-71
2021/04/20 01:12:39;;;;;;;48.67;26.77;;;8.30;99.90;;;;;;4986068;28;20205;-73
2021/04/20 01:15:07;;;;;;;47.47;28.30;;;8.30;99.90;;;;;;4970548;28;20027;-75
2021/04/20 01:17:33;;;;;;;46.83;27.27;;;8.30;99.90;;;;;;4958847;28;20019;-73
2021/04/20 01:20:00;;;;;;;52.70;27.88;;;8.20;99.90;;;;;;4965439;28;20108;-75
2021/04/20 01:22:31;;;;;;;44.75;27.95;;;8.30;99.90;;;;;;4966042;28;20031;-74
2021/04/20 01:24:58;;;;;;;53.50;28.98;;;8.20;99.90;;;;;;4963857;28;20477;-74
2021/04/20 01:27:25;;;;;;;48.53;28.08;;;8.20;99.90;;;;;;4959854;28;20035;-74
2021/04/20 01:29:56;;;;;;;50.00;28.85;;;8.20;99.90;;;;;;4938711;28;20090;-74
2021/04/20 01:32:22;;;;;;;52.85;29.73;;;8.20;99.90;;;;;;4952683;28;20019;-73
2021/04/20 01:34:48;;;;;;;54.13;28.27;;;8.10;99.90;;;;;;4956537;28;20049;-71
2021/04/20 01:37:15;;;;;;;48.00;28.25;;;8.10;99.90;;;;;;4957709;28;20083;-74
2021/04/20 01:39:49;;;;;;;48.25;27.30;;;8.20;99.90;;;;;;4956339;28;20080;-74
2021/04/20 01:42:15;;;;;;;53.50;28.10;;;8.40;99.90;;;;;;4959275;28;20031;-75
2021/04/20 01:44:41;;;;;;;45.47;26.83;;;8.40;99.90;;;;;;4960246;28;20054;-74
2021/04/20 01:47:08;;;;;;;53.28;30.25;;;8.40;99.90;;;;;;4959401;28;20015;-73
2021/04/20 01:49:34;;;;;;;55.65;32.05;;;8.40;99.90;;;;;;4958326;28;20031;-75
2021/04/20 01:52:00;;;;;;;56.35;31.30;;;8.40;99.90;;;;;;4970195;28;20034;-74
2021/04/20 01:54:26;;;;;;;59.65;33.25;;;8.30;99.90;;;;;;4941087;28;20027;-76
2021/04/20 01:56:54;;;;;;;69.25;36.20;;;8.10;99.90;;;;;;4971379;28;20019;-75
2021/04/20 01:59:20;;;;;;;65.47;34.10;;;8.10;99.90;;;;;;4957425;28;20027;-75
2021/04/20 02:01:46;;;;;;;71.68;37.13;;;8.10;99.90;;;;;;4938743;28;20038;-74
2021/04/20 02:04:12;;;;;;;71.68;36.25;;;8.10;99.90;;;;;;4957755;28;20049;-74
2021/04/20 02:06:39;;;;;;;76.15;38.05;;;8.10;99.90;;;;;;4960926;28;20023;-73
2021/04/20 02:09:06;;;;;;;70.38;37.35;;;8.10;99.90;;;;;;4953308;28;20148;-75
2021/04/20 02:11:32;;;;;;;74.07;38.58;;;8.00;99.90;;;;;;4960435;28;20024;-74
2021/04/20 02:13:59;;;;;;;68.07;35.65;;;8.00;99.90;;;;;;4962891;28;20122;-73
2021/04/20 02:16:25;;;;;;;59.28;33.55;;;8.00;99.90;;;;;;4955759;28;20035;-74
2021/04/20 02:18:57;;;;;;;64.82;34.53;;;8.10;99.90;;;;;;4946782;28;20028;-73
2021/04/20 02:21:24;;;;;;;56.92;32.60;;;8.00;99.90;;;;;;4957998;28;20023;-74
2021/04/20 02:23:50;;;;;;;66.57;34.60;;;7.90;99.90;;;;;;4958224;28;20031;-75
2021/04/20 02:26:37;;;;;;;70.05;33.47;;;8.00;99.90;;;;;;4967418;28;20023;-74
2021/04/20 02:29:06;;;;;;;60.70;34.85;;;8.00;99.90;;;;;;4973685;28;20023;-74
2021/04/20 02:31:37;;;;;;;63.55;35.45;;;8.00;99.90;;;;;;5007672;28;20530;-72
2021/04/20 02:34:09;;;;;;;60.60;33.78;;;7.90;99.90;;;;;;4961955;28;20447;-72
2021/04/20 02:36:39;;;;;;;58.83;33.38;;;7.90;99.90;;;;;;4964960;28;20035;-75
2021/04/20 02:39:07;;;;;;;66.55;34.78;;;8.00;99.90;;;;;;4967183;28;20078;-74
2021/04/20 02:41:34;;;;;;;68.40;35.58;;;7.90;99.90;;;;;;4989698;28;20030;-74
2021/04/20 02:44:01;;;;;;;66.35;36.03;;;8.00;99.90;;;;;;4969385;28;20109;-74
2021/04/20 02:46:28;;;;;;;69.68;37.08;;;8.00;99.90;;;;;;4969677;28;20019;-73
2021/04/20 02:48:54;;;;;;;71.43;38.47;;;8.00;99.90;;;;;;4968642;28;20118;-73
2021/04/20 02:51:20;;;;;;;70.78;38.10;;;7.80;99.90;;;;;;4957103;28;20063;-73
2021/04/20 02:53:47;;;;;;;68.18;37.60;;;7.70;99.90;;;;;;4971332;28;20442;-73
2021/04/20 02:56:15;;;;;;;64.88;36.22;;;7.70;99.90;;;;;;4955294;28;20047;-75
2021/04/20 02:58:43;;;;;;;74.65;39.83;;;7.80;99.90;;;;;;4966433;28;20059;-74
2021/04/20 03:01:18;;;;;;;68.15;36.88;;;7.70;99.90;;;;;;4969897;28;20023;-73
2021/04/20 03:03:46;;;;;;;66.75;36.15;;;7.70;99.90;;;;;;4969898;28;20032;-74
2021/04/20 03:06:13;;;;;;;67.50;35.92;;;7.80;99.90;;;;;;4958500;28;20031;-75
2021/04/20 03:08:42;;;;;;;65.93;36.55;;;7.70;99.90;;;;;;4961516;28;20042;-72
2021/04/20 03:11:16;;;;;;;72.53;37.75;;;7.70;99.90;;;;;;4962819;28;20482;-74
2021/04/20 03:13:45;;;;;;;63.63;36.03;;;7.70;99.90;;;;;;4958049;28;20027;-74
2021/04/20 03:16:13;;;;;;;69.85;35.08;;;7.70;99.90;;;;;;4965330;28;20023;-72
2021/04/20 03:18:40;;;;;;;86.13;38.40;;;7.60;99.90;;;;;;4968907;28;20039;-74
2021/04/20 03:21:09;;;;;;;74.65;37.92;;;7.50;99.90;;;;;;4960577;28;20032;-72
2021/04/20 03:23:35;;;;;;;71.10;36.30;;;7.50;99.90;;;;;;4961938;28;20058;-72
2021/04/20 03:26:03;;;;;;;68.45;35.60;;;7.40;99.90;;;;;;4962670;28;20110;-75
2021/04/20 03:28:29;;;;;;;63.63;34.58;;;7.40;99.90;;;;;;4969470;28;20055;-73
2021/04/20 03:30:59;;;;;;;69.40;35.97;;;7.50;99.90;;;;;;4944299;28;20077;-73
2021/04/20 03:33:31;;;;;;;73.97;36.45;;;7.40;99.90;;;;;;4967047;28;20100;-73
2021/04/20 03:36:02;;;;;;;64.72;35.38;;;7.40;99.90;;;;;;4956524;28;20112;-74
2021/04/20 03:38:49;;;;;;;67.18;36.15;;;7.40;99.90;;;;;;4966169;28;20030;-72
2021/04/20 03:41:25;;;;;;;66.70;35.25;;;7.30;99.90;;;;;;4961388;28;20114;-73
2021/04/20 03:43:55;;;;;;;67.30;35.92;;;7.30;99.90;;;;;;4967920;28;20054;-75
2021/04/20 03:46:23;;;;;;;71.43;34.83;;;7.20;99.90;;;;;;4954011;28;20023;-73
2021/04/20 03:48:57;;;;;;;70.75;34.90;;;7.10;99.90;;;;;;4958509;28;20026;-75
2021/04/20 03:51:27;;;;;;;76.13;36.55;;;7.10;99.90;;;;;;4967698;28;20023;-74
2021/04/20 03:53:58;;;;;;;69.85;34.92;;;7.00;99.90;;;;;;4966341;28;20018;-72
2021/04/20 03:56:27;;;;;;;72.80;36.60;;;7.10;99.90;;;;;;4965158;28;20034;-73
2021/04/20 03:58:55;;;;;;;70.13;36.58;;;7.10;99.90;;;;;;4964631;28;20027;-73
2021/04/20 04:01:23;;;;;;;73.35;36.58;;;7.10;99.90;;;;;;4955814;28;20078;-76
2021/04/20 04:03:50;;;;;;;67.93;36.10;;;7.20;99.90;;;;;;4963492;28;20495;-73
2021/04/20 04:06:19;;;;;;;63.55;33.78;;;7.20;99.90;;;;;;4958987;28;20101;-72
2021/04/20 04:08:47;;;;;;;75.53;37.88;;;7.20;99.90;;;;;;4953593;28;20077;-74
2021/04/20 04:11:15;;;;;;;70.47;36.30;;;7.30;99.90;;;;;;4953521;28;20020;-73
2021/04/20 04:13:44;;;;;;;69.18;35.70;;;7.30;99.90;;;;;;4958958;28;20031;-72
2021/04/20 04:16:13;;;;;;;75.78;37.38;;;7.30;99.90;;;;;;4957645;28;20070;-73
2021/04/20 04:18:44;;;;;;;76.15;38.40;;;7.20;99.90;;;;;;4955021;28;20034;-74
2021/04/20 04:21:25;;;;;;;82.63;39.65;;;7.10;99.90;;;;;;4961662;28;20108;-72
2021/04/20 04:23:54;;;;;;;87.72;40.75;;;7.10;99.90;;;;;;4955408;28;20046;-72
2021/04/20 04:26:27;;;;;;;82.10;39.40;;;7.00;99.90;;;;;;4965479;28;20027;-74
2021/04/20 04:28:58;;;;;;;78.40;39.10;;;7.00;99.90;;;;;;4960625;28;20402;-74
2021/04/20 04:31:26;;;;;;;81.22;38.45;;;7.00;99.90;;;;;;4940786;28;20111;-75
2021/04/20 04:33:55;;;;;;;90.55;40.05;;;7.00;99.90;;;;;;4971598;28;20050;-71
2021/04/20 04:36:21;;;;;;;91.05;41.53;;;6.90;99.90;;;;;;4954975;28;20058;-76
2021/04/20 04:38:47;;;;;;;100.30;42.90;;;6.80;99.90;;;;;;4958269;28;20149;-74
2021/04/20 04:41:13;;;;;;;88.90;40.70;;;6.90;99.90;;;;;;4951566;28;20031;-73
2021/04/20 04:43:43;;;;;;;90.30;41.63;;;6.90;99.90;;;;;;4958217;28;20742;-73
2021/04/20 04:46:09;;;;;;;87.38;41.65;;;6.90;99.90;;;;;;4962407;28;20023;-74
2021/04/20 04:48:37;;;;;;;80.95;40.00;;;6.90;99.90;;;;;;4959407;28;20341;-75
2021/04/20 04:51:04;;;;;;;83.07;39.65;;;6.90;99.90;;;;;;4957034;28;20487;-74
2021/04/20 04:53:32;;;;;;;80.25;40.22;;;6.90;99.90;;;;;;4955779;28;20035;-75
2021/04/20 04:56:01;;;;;;;91.78;41.13;;;7.00;99.90;;;;;;4958512;28;20116;-73
2021/04/20 04:58:30;;;;;;;82.18;40.50;;;7.00;99.90;;;;;;4955238;28;20027;-72
2021/04/20 05:00:57;;;;;;;79.43;39.63;;;7.00;99.90;;;;;;4958694;28;20169;-74
2021/04/20 05:03:25;;;;;;;81.75;37.60;;;7.00;99.90;;;;;;4954279;28;20024;-75
2021/04/20 05:05:56;;;;;;;73.97;37.78;;;6.90;99.90;;;;;;4956286;28;20045;-74
2021/04/20 05:08:23;;;;;;;82.43;40.13;;;6.90;99.90;;;;;;4964513;28;20564;-74
2021/04/20 05:10:50;;;;;;;83.50;38.83;;;6.90;99.90;;;;;;4966954;28;20114;-74
2021/04/20 05:13:20;;;;;;;73.97;38.50;;;6.90;99.90;;;;;;4954483;28;20026;-73
2021/04/20 05:15:46;;;;;;;76.95;37.67;;;7.00;99.90;;;;;;4961663;28;20034;-77
2021/04/20 05:18:13;;;;;;;83.45;40.28;;;7.00;99.90;;;;;;4962154;28;20062;-76
2021/04/20 05:20:44;;;;;;;79.80;39.95;;;7.00;99.90;;;;;;4954342;28;20027;-73
2021/04/20 05:23:17;;;;;;;75.38;38.45;;;7.10;99.90;;;;;;4965267;28;20028;-75
2021/04/20 05:26:00;;;;;;;72.38;38.03;;;7.20;99.90;;;;;;4945182;28;20093;-78
2021/04/20 05:28:30;;;;;;;71.60;37.75;;;7.20;99.90;;;;;;4962568;28;20030;-74
2021/04/20 05:30:59;;;;;;;75.30;39.13;;;7.30;99.90;;;;;;4945196;28;20502;-73
2021/04/20 05:33:35;;;;;;;72.18;38.10;;;7.30;99.90;;;;;;4963634;28;20466;-75
2021/04/20 05:36:20;;;;;;;79.20;38.30;;;7.40;99.90;;;;;;4965342;28;20019;-75
2021/04/20 05:39:00;;;;;;;77.07;38.90;;;7.40;99.90;;;;;;4948537;28;20023;-75
2021/04/20 05:41:44;;;;;;;73.57;36.70;;;7.50;99.90;;;;;;4952361;28;20038;-76
2021/04/20 05:44:35;;;;;;;75.65;39.50;;;7.70;99.90;;;;;;4938250;28;20043;-75
2021/04/20 05:47:06;;;;;;;71.18;37.28;;;7.90;99.90;;;;;;4964100;28;20054;-74
2021/04/20 05:49:48;;;;;;;82.45;39.40;;;7.90;99.90;;;;;;4938366;28;20035;-74
2021/04/20 05:52:21;;;;;;;79.35;40.00;;;7.90;99.90;;;;;;4971130;28;20052;-77
2021/04/20 05:54:46;;;;;;;83.07;41.00;;;8.00;99.90;;;;;;4944629;28;20035;-79
2021/04/20 05:57:12;;;;;;;77.90;39.78;;;8.10;99.90;;;;;;4946611;28;20030;-75
2021/04/20 05:59:38;;;;;;;75.97;39.78;;;8.10;99.90;;;;;;4930323;28;20035;-74
2021/04/20 06:02:05;;;;;;;74.72;39.45;;;8.10;99.90;;;;;;4961382;28;20605;-73
2021/04/20 06:04:36;;;;;;;76.30;39.05;;;8.20;99.90;;;;;;4967836;28;20019;-74
2021/04/20 06:07:10;;;;;;;79.00;40.58;;;8.30;99.90;;;;;;4957864;28;20014;-73
2021/04/20 06:09:36;;;;;;;68.30;37.13;;;8.30;99.90;;;;;;4955383;28;20029;-77
2021/04/20 06:12:02;;;;;;;77.25;41.00;;;8.40;99.90;;;;;;4973593;28;20019;-75
2021/04/20 06:14:27;;;;;;;75.03;41.13;;;8.50;99.90;;;;;;4980183;28;20097;-76
2021/04/20 06:16:54;;;;;;;87.28;42.10;;;8.60;99.90;;;;;;4963604;28;20035;-77
2021/04/20 06:19:25;;;;;;;75.22;41.33;;;8.80;99.90;;;;;;4964048;28;20057;-74
2021/04/20 06:21:52;;;;;;;73.30;41.53;;;9.10;99.90;;;;;;4967949;28;20086;-75
2021/04/20 06:24:19;;;;;;;76.80;40.17;;;9.20;99.90;;;;;;4996141;28;20166;-73
2021/04/20 06:26:46;;;;;;;75.97;41.92;;;9.40;99.90;;;;;;4982582;28;20118;-76
2021/04/20 06:29:15;;;;;;;79.00;40.75;;;9.40;99.90;;;;;;4960428;28;20027;-75
2021/04/20 06:31:41;;;;;;;78.43;42.70;;;9.60;99.90;;;;;;4968967;28;20027;-72
2021/04/20 06:34:08;;;;;;;69.60;40.40;;;9.70;99.90;;;;;;4954839;28;20027;-75
2021/04/20 06:36:37;;;;;;;68.72;38.67;;;9.80;99.90;;;;;;4969043;28;20051;-75
2021/04/20 06:39:03;;;;;;;78.57;42.80;;;9.90;99.90;;;;;;4949634;28;20749;-75
2021/04/20 06:41:32;;;;;;;72.47;40.88;;;9.80;99.90;;;;;;4960230;28;20062;-75
2021/04/20 06:44:17;;;;;;;67.80;39.88;;;9.80;99.90;;;;;;4963331;28;20034;-76
2021/04/20 06:46:48;;;;;;;71.93;40.70;;;10.00;99.90;;;;;;4954199;28;20023;-74
2021/04/20 06:49:19;;;;;;;76.00;41.97;;;10.20;99.90;;;;;;4964452;28;20023;-72
2021/04/20 06:52:00;;;;;;;75.95;43.03;;;10.30;99.90;;;;;;4952167;28;20074;-73
2021/04/20 06:54:32;;;;;;;75.25;41.78;;;10.40;99.90;;;;;;4949065;28;20034;-73
2021/04/20 06:57:21;;;;;;;69.05;38.17;;;10.60;99.90;;;;;;4948290;28;20020;-73
2021/04/20 07:00:02;;;;;;;74.47;42.20;;;10.70;99.90;;;;;;4949785;28;20078;-75
2021/04/20 07:02:53;;;;;;;74.00;41.50;;;10.50;99.90;;;;;;4977768;28;20019;-77
2021/04/20 07:05:46;;;;;;;72.10;40.25;;;10.50;99.90;;;;;;4959157;28;20027;-76
2021/04/20 07:08:43;;;;;;;69.85;40.67;;;10.70;99.90;;;;;;4974973;28;20098;-76
2021/04/20 07:11:14;;;;;;;71.00;39.90;;;10.90;99.90;;;;;;4975789;28;20028;-77
2021/04/20 07:13:46;;;;;;;63.97;36.97;;;11.00;99.90;;;;;;4983485;28;20027;-74
2021/04/20 07:16:32;;;;;;;63.47;35.90;;;10.60;99.90;;;;;;4988689;28;20018;-75
2021/04/20 07:19:35;;;;;;;67.78;38.08;;;10.30;99.90;;;;;;4967002;28;20023;-74
2021/04/20 07:22:26;;;;;;;63.63;37.05;;;10.50;99.90;;;;;;4968211;28;20020;-76
2021/04/20 07:25:38;;;;;;;63.58;35.03;;;10.30;99.90;;;;;;4972939;28;20094;-76
2021/04/20 07:28:19;;;;;;;64.20;35.70;;;10.40;99.90;;;;;;4946378;28;20050;-78
2021/04/20 07:31:24;;;;;;;76.22;37.28;;;10.60;99.90;;;;;;4958854;28;20039;-77
2021/04/20 07:34:07;;;;;;;65.70;35.47;;;10.60;99.90;;;;;;4957061;28;20051;-76
2021/04/20 07:36:39;;;;;;;67.78;37.78;;;10.60;99.90;;;;;;4998648;28;20020;-75
2021/04/20 07:39:13;;;;;;;68.22;35.03;;;10.60;99.90;;;;;;4962545;28;20030;-74
2021/04/20 07:42:15;;;;;;;70.15;37.55;;;10.70;99.90;;;;;;4969139;28;20033;-77
2021/04/20 07:44:41;;;;;;;66.85;35.97;;;10.80;99.90;;;;;;4971188;28;20022;-76
2021/04/20 07:47:13;;;;;;;60.65;35.05;;;11.20;99.90;;;;;;4966708;28;20073;-77
2021/04/20 07:50:11;;;;;;;62.35;36.53;;;11.50;99.90;;;;;;4986007;28;20031;-77
2021/04/20 07:52:55;;;;;;;65.55;37.17;;;11.80;99.90;;;;;;4972059;28;20034;-76
2021/04/20 07:55:26;;;;;;;68.53;39.08;;;12.00;99.90;;;;;;4984187;28;20057;-75
2021/04/20 07:57:56;;;;;;;68.75;38.83;;;12.20;99.90;;;;;;4961995;28;20547;-76
2021/04/20 08:00:34;;;;;;;69.55;37.63;;;12.00;99.90;;;;;;4962839;28;20023;-76
2021/04/20 08:03:16;;;;;;;70.60;38.45;;;11.70;99.90;;;;;;4961348;28;20030;-76
2021/04/20 08:05:54;;;;;;;69.05;37.53;;;11.60;99.90;;;;;;4966377;28;20019;-76
2021/04/20 08:08:33;;;;;;;75.68;39.28;;;11.80;99.90;;;;;;4972045;28;20112;-76
2021/04/20 08:11:44;;;;;;;73.25;37.85;;;11.80;99.90;;;;;;4961188;28;20094;-76
2021/04/20 08:14:19;;;;;;;76.97;37.90;;;12.10;99.90;;;;;;4974474;28;20027;-76
2021/04/20 08:16:56;;;;;;;69.40;38.30;;;12.40;99.90;;;;;;4971842;28;20027;-76
2021/04/20 08:19:40;;;;;;;68.13;36.83;;;12.20;99.90;;;;;;4965807;28;20438;-77
2021/04/20 08:22:07;;;;;;;71.30;37.38;;;12.40;99.90;;;;;;4966754;28;20085;-74
2021/04/20 08:24:53;;;;;;;64.75;36.42;;;12.50;99.90;;;;;;4965443;28;20031;-78
2021/04/20 08:27:47;;;;;;;70.13;36.30;;;12.60;99.90;;;;;;4974102;28;20030;-76
2021/04/20 08:30:41;;;;;;;61.05;34.78;;;12.80;99.90;;;;;;4953067;28;20023;-75
2021/04/20 08:33:11;;;;;;;63.58;36.38;;;12.90;99.90;;;;;;4939370;28;20061;-77
2021/04/20 08:35:49;;;;;;;61.45;33.88;;;13.00;99.90;;;;;;4966822;28;20027;-77
2021/04/20 08:38:48;;;;;;;64.30;35.45;;;13.50;99.90;;;;;;4967120;28;20323;-74
2021/04/20 08:41:20;;;;;;;63.63;36.42;;;13.40;99.90;;;;;;4964527;28;20479;-75
2021/04/20 08:44:05;;;;;;;;;;;13.70;99.90;;;;;;4955579;28;20122;-75
2021/04/20 08:47:09;;;;;;;65.03;34.88;;;13.80;99.90;;;;;;4966318;28;19982;-78
2021/04/20 08:49:45;;;;;;;63.60;33.28;;;13.30;99.90;;;;;;4957381;28;20100;-75
2021/04/20 08:52:21;;;;;;;58.40;34.60;;;13.70;99.90;;;;;;4966636;28;20114;-76
2021/04/20 08:55:01;;;;;;;56.97;33.78;;;14.00;99.90;;;;;;4966989;28;20483;-76
2021/04/20 08:57:53;;;;;;;61.25;34.25;;;14.40;99.90;;;;;;4966784;28;20027;-78
2021/04/20 09:01:02;;;;;;;63.47;34.55;;;14.70;99.90;;;;;;4961510;28;20022;-76
2021/04/20 09:03:49;;;;;;;63.47;34.33;;;14.70;99.90;;;;;;4943404;28;20754;-77
2021/04/20 09:06:40;;;;;;;60.45;35.63;;;14.50;99.90;;;;;;4957923;28;20015;-76
2021/04/20 09:09:07;;;;;;;63.00;33.88;;;14.60;99.90;;;;;;4971022;28;20014;-75
2021/04/20 09:11:44;;;;;;;56.10;33.78;;;14.50;99.90;;;;;;4977721;28;20023;-77
2021/04/20 09:14:23;;;;;;;57.92;33.30;;;14.70;99.90;;;;;;4970901;28;20015;-78
2021/04/20 09:17:00;;;;;;;50.13;31.63;;;15.10;99.90;;;;;;4967816;28;20031;-77
2021/04/20 09:19:34;;;;;;;52.50;31.10;;;15.30;99.90;;;;;;4966540;28;20023;-76
2021/04/20 09:22:24;;;;;;;50.38;31.50;;;15.30;99.90;;;;;;4964322;28;20019;-76
2021/04/20 09:25:05;;;;;;;56.42;32.20;;;15.00;99.90;;;;;;4949559;28;20063;-77
2021/04/20 09:27:56;;;;;;;52.45;30.40;;;14.60;99.90;;;;;;4960452;28;20023;-75
2021/04/20 09:30:23;;;;;;;54.15;31.52;;;15.00;99.90;;;;;;4948490;28;20113;-76
2021/04/20 09:32:55;;;;;;;51.63;31.30;;;15.30;99.90;;;;;;4967218;28;20038;-77
2021/04/20 09:35:22;;;;;;;53.85;31.17;;;15.30;99.90;;;;;;4963875;28;20032;-76
2021/04/20 09:37:50;;;;;;;56.90;32.85;;;15.00;99.90;;;;;;4965801;28;20098;-77
2021/04/20 09:40:19;;;;;;;56.33;31.08;;;14.80;99.90;;;;;;4969728;28;20386;-77
2021/04/20 09:42:56;;;;;;;57.53;29.50;;;14.80;99.90;;;;;;4956349;28;20076;-77
2021/04/20 09:45:57;;;;;;;52.20;31.25;;;14.60;99.90;;;;;;4958250;28;20035;-75
2021/04/20 09:48:43;;;;;;;53.92;30.73;;;15.20;99.90;;;;;;4941382;28;20027;-79
2021/04/20 09:51:17;;;;;;;52.70;30.23;;;15.90;99.90;;;;;;4939150;28;20019;-77
2021/04/20 09:54:03;;;;;;;50.28;29.60;;;16.30;99.90;;;;;;4966499;28;20027;-76
2021/04/20 09:56:36;;;;;;;45.72;27.30;;;15.50;99.90;;;;;;4964034;28;20509;-77
2021/04/20 09:59:08;;;;;;;49.88;30.33;;;16.10;99.90;;;;;;5005540;28;20028;-77
2021/04/20 10:01:58;;;;;;;51.42;30.90;;;16.20;99.90;;;;;;4971919;28;20094;-75
2021/04/20 10:04:49;;;;;;;48.20;27.73;;;15.60;99.90;;;;;;4970914;28;20035;-78
2021/04/20 10:07:49;;;;;;;46.78;29.17;;;16.30;99.90;;;;;;4949746;28;20079;-77
2021/04/20 10:10:31;;;;;;;51.60;27.80;;;16.40;99.90;;;;;;4973201;28;20031;-75
2021/04/20 10:13:43;;;;;;;49.15;28.85;;;16.50;99.90;;;;;;4962167;28;20031;-78
2021/04/20 10:16:35;;;;;;;44.63;27.00;;;16.60;99.90;;;;;;4935012;28;20073;-77
2021/04/20 10:19:15;;;;;;;46.75;27.80;;;17.10;99.90;;;;;;4963064;28;20053;-75
2021/04/20 10:22:18;;;;;;;42.92;25.33;;;16.90;99.50;;;;;;4949776;28;20065;-76
2021/04/20 10:25:18;;;;;;;51.28;28.13;;;17.40;99.20;;;;;;4981090;28;20106;-77
2021/04/20 10:27:47;;;;;;;37.65;24.08;;;17.30;99.20;;;;;;4971767;28;20023;-76
2021/04/20 10:30:26;;;;;;;41.17;25.63;;;17.60;97.60;;;;;;4964358;28;20031;-78
2021/04/20 10:32:58;;;;;;;39.30;23.33;;;17.00;96.60;;;;;;4945848;28;20063;-76
2021/04/20 10:35:38;;;;;;;37.03;21.87;;;16.50;97.50;;;;;;4959274;28;20094;-75
2021/04/20 10:38:14;;;;;;;38.53;23.23;;;16.70;97.30;;;;;;4959461;28;20023;-75
2021/04/20 10:40:44;;;;;;;41.45;25.13;;;16.20;96.90;;;;;;4944766;28;20026;-77
2021/04/20 10:43:16;;;;;;;41.03;24.33;;;16.10;98.30;;;;;;4979326;28;20026;-78
2021/04/20 10:45:45;;;;;;;41.42;24.42;;;16.60;98.60;;;;;;4962069;28;20080;-78
2021/04/20 10:48:22;;;;;;;44.10;26.10;;;17.30;97.20;;;;;;4980574;28;20036;-78
2021/04/20 10:50:52;;;;;;;38.88;23.23;;;17.30;96.60;;;;;;4993743;28;20033;-77
2021/04/20 10:53:28;;;;;;;40.63;25.65;;;17.20;96.20;;;;;;4944333;28;20146;-77
2021/04/20 10:56:08;;;;;;;41.05;25.33;;;17.20;96.70;;;;;;4953509;28;20019;-77
2021/04/20 10:58:41;;;;;;;40.03;24.02;;;16.50;97.80;;;;;;4960055;28;20016;-79
2021/04/20 11:01:13;;;;;;;42.17;24.58;;;16.60;98.40;;;;;;4970324;28;20042;-77
2021/04/20 11:03:41;;;;;;;32.50;21.13;;;17.50;97.30;;;;;;4978522;28;20028;-78
2021/04/20 11:06:46;;;;;;;35.15;20.15;;;17.90;94.00;;;;;;4975693;28;20013;-76
2021/04/20 11:09:12;;;;;;;26.45;18.05;;;17.70;94.00;;;;;;4979685;28;20033;-76
2021/04/20 11:11:39;;;;;;;30.42;19.38;;;17.60;93.10;;;;;;4984146;28;20961;-77
2021/04/20 11:14:05;;;;;;;26.67;17.45;;;17.30;93.30;;;;;;4980708;28;20127;-77
2021/04/20 11:16:40;;;;;;;26.23;16.05;;;17.00;93.60;;;;;;4986010;28;20024;-80
2021/04/20 11:19:09;;;;;;;25.30;16.23;;;17.50;93.00;;;;;;4979163;28;20026;-78
2021/04/20 11:21:45;;;;;;;29.10;16.67;;;17.90;91.20;;;;;;4980685;28;20082;-80
2021/04/20 11:24:21;;;;;;;25.20;16.38;;;17.50;90.10;;;;;;4986259;28;20035;-79
2021/04/20 11:26:59;;;;;;;27.02;16.20;;;17.60;91.10;;;;;;4956026;28;20054;-77
2021/04/20 11:29:35;;;;;;;21.27;13.75;;;18.60;88.80;;;;;;4964537;28;20082;-78
2021/04/20 11:32:05;;;;;;;19.77;13.27;;;18.70;82.80;;;;;;4956180;28;20410;-78
2021/04/20 11:34:33;;;;;;;21.77;13.10;;;18.90;79.90;;;;;;4968331;28;20617;-77
2021/04/20 11:37:10;;;;;;;21.42;13.90;;;18.90;82.70;;;;;;4972409;28;20027;-79
2021/04/20 11:39:48;;;;;;;19.58;13.50;;;18.90;79.70;;;;;;4962265;28;20020;-79
2021/04/20 11:42:18;;;;;;;15.52;11.45;;;18.80;76.90;;;;;;4961136;28;20090;-79
2021/04/20 11:44:49;;;;;;;18.30;11.90;;;19.10;74.60;;;;;;4979347;28;20156;-76
2021/04/20 11:47:15;;;;;;;21.77;13.60;;;19.60;73.80;;;;;;4974736;28;20081;-80
2021/04/20 11:49:55;;;;;;;23.65;16.17;;;19.60;72.50;;;;;;4959224;28;20065;-77
2021/04/20 11:52:26;;;;;;;24.40;13.80;;;19.20;75.10;;;;;;4976715;28;20050;-75
2021/04/20 11:55:01;;;;;;;20.83;11.65;;;18.60;73.80;;;;;;4972694;28;20038;-77
2021/04/20 11:57:28;;;;;;;21.55;14.77;;;18.10;74.80;;;;;;4958642;28;20030;-77
2021/04/20 11:59:54;;;;;;;24.83;12.90;;;18.10;73.80;;;;;;4945305;28;20063;-77
2021/04/20 12:02:30;;;;;;;22.75;13.73;;;18.40;72.30;;;;;;4960066;28;20028;-78
2021/04/20 12:05:06;;;;;;;23.55;14.65;;;18.60;73.40;;;;;;4949241;28;20019;-76
2021/04/20 12:07:34;;;;;;;27.30;16.38;;;19.50;71.40;;;;;;4975184;28;20550;-77
2021/04/20 12:10:01;;;;;;;23.02;14.63;;;19.20;72.20;;;;;;4948855;28;20016;-76
2021/04/20 12:12:33;;;;;;;16.95;12.02;;;19.30;70.90;;;;;;4951678;28;20042;-77
2021/04/20 12:15:02;;;;;;;21.52;12.63;;;19.90;68.00;;;;;;4950569;28;20071;-77
2021/04/20 12:17:33;;;;;;;24.42;15.95;;;20.20;68.70;;;;;;4971107;28;20603;-77
2021/04/20 12:20:05;;;;;;;27.00;15.30;;;20.20;68.70;;;;;;4970306;28;20110;-78
2021/04/20 12:22:32;;;;;;;22.50;14.60;;;19.70;69.00;;;;;;4963187;28;20042;-76
2021/04/20 12:24:58;;;;;;;19.90;13.48;;;20.00;68.40;;;;;;4961051;28;20066;-78
2021/04/20 12:27:30;;;;;;;27.90;16.95;;;19.70;66.90;;;;;;4957283;28;20023;-76
2021/04/20 12:29:59;;;;;;;24.03;15.67;;;19.20;68.90;;;;;;4968477;28;20147;-77
2021/04/20 12:32:25;;;;;;;32.15;20.08;;;18.90;68.80;;;;;;4969632;28;20763;-77
2021/04/20 12:34:56;;;;;;;28.73;18.20;;;18.50;72.50;;;;;;4972588;28;20081;-77
2021/04/20 12:37:29;;;;;;;28.70;18.38;;;19.00;74.20;;;;;;4967589;28;20027;-77
2021/04/20 12:40:03;;;;;;;23.23;14.85;;;18.60;73.10;;;;;;4935825;28;20029;-79
2021/04/20 12:42:33;;;;;;;19.40;13.98;;;19.00;71.10;;;;;;4966666;28;20045;-78
2021/04/20 12:45:12;;;;;;;30.65;18.02;;;19.60;69.60;;;;;;4945413;28;20050;-78
2021/04/20 12:47:40;;;;;;;28.05;17.42;;;19.20;71.30;;;;;;4958303;28;20035;-80
2021/04/20 12:50:11;;;;;;;29.08;18.13;;;18.60;72.00;;;;;;4967186;28;20038;-79
2021/04/20 12:52:41;;;;;;;31.45;18.40;;;18.40;75.10;;;;;;4964672;28;20106;-76
2021/04/20 12:55:11;;;;;;;30.02;18.33;;;18.40;74.50;;;;;;4950422;28;20032;-78
2021/04/20 12:57:43;;;;;;;30.65;17.95;;;17.90;75.30;;;;;;4975000;28;20022;-79
2021/04/20 13:00:40;;;;;;;30.70;17.70;;;17.80;76.40;;;;;;4968717;28;20027;-79
2021/04/20 13:03:09;;;;;;;31.52;18.20;;;18.00;76.00;;;;;;4969587;28;20232;-78
2021/04/20 13:05:40;;;;;;;30.02;18.77;;;17.50;76.30;;;;;;4940476;28;20077;-78